Sussex, Canada
Current Conditions -  °F | °C
As of 3:00 AM on Saturday 29 Nov 2014 (Local Time) from CYSJ Reporting Station
Overcast Overcast  
Wind Chill:   Ceiling: 1000
Heat Index: 18°   Visibility: 10mi
Dew Point: 14°   Wind: 9mph
Humidity: 86%   Direction: 310°NW
Pressure: 30.08"   Gusts: NA
Location:  45.72°N, 65.52°W
Report Text: CYSJ 290700Z 31008KT 10SM BKN010 OVC080 M08/M10 A3008 RMK SC6AC2 SLP195
Loading
Personal Weather Stations






























Interactive Weather Map New forecast layout! Learn more

10-Day Weather Forecast

Advertisements
Track Severe Weather on mobile